Easton, Massachusetts
Current Conditions -  °F | °C
As of 8:52 AM on Thursday 29 Jan 2015 (Local Time) from KTAN Reporting Station
Clear Clear  
Wind Chill:   Ceiling: Unl
Heat Index:   Visibility: 10mi
Dew Point:   Wind: 0mph
Humidity: 95%   Direction: NA
Pressure: 30.31"   Gusts: NA
Location:  42.02°N, 71.13°W
Report Text: KTAN 291352Z AUTO 00000KT 10SM CLR M14/M15 A3031 RMK AO2 SLP265 I1001 T11441150
Loading
Personal Weather Stations






























Interactive Weather Map New forecast layout! Learn more

10-Day Weather Forecast

Advertisements
Track Severe Weather on mobile